Time;durP1;ratioP1;P1;durP2;ratioP2;P2;SDS_P1;SDS_P2;PMS_P1;PMS_P2;Temp;Humidity;BMP_temperature;BMP_pressure;BME280_temperature;BME280_humidity;BME280_pressure;Samples;Min_cycle;Max_cycle;Signal;HPM_P1;HPM_P2
2021/05/11 00:00:14;;;;;;;6.85;2.15;;;19.60;75.60;;;;;;5078383;28;20075;-73
2021/05/11 00:03:00;;;;;;;4.05;1.98;;;19.60;76.10;;;;;;5072199;28;20056;-74
2021/05/11 00:05:46;;;;;;;3.47;2.15;;;19.50;76.20;;;;;;5091919;28;20040;-74
2021/05/11 00:08:31;;;;;;;3.95;2.13;;;19.50;76.20;;;;;;5084658;28;20093;-74
2021/05/11 00:11:18;;;;;;;5.15;2.53;;;19.40;76.40;;;;;;5104982;28;20505;-74
2021/05/11 00:14:06;;;;;;;8.32;2.20;;;19.40;76.40;;;;;;5095281;28;20140;-73
2021/05/11 00:16:51;;;;;;;3.40;1.90;;;19.40;76.40;;;;;;5112415;28;20110;-74
2021/05/11 00:19:37;;;;;;;3.38;2.20;;;19.30;77.00;;;;;;5073549;28;20058;-74
2021/05/11 00:22:23;;;;;;;4.10;2.22;;;19.30;77.10;;;;;;5088879;28;20077;-74
2021/05/11 00:25:09;;;;;;;3.38;1.92;;;19.30;77.20;;;;;;5064992;28;20400;-75
2021/05/11 00:27:55;;;;;;;5.00;2.42;;;19.20;77.30;;;;;;5060580;28;20118;-75
2021/05/11 00:30:41;;;;;;;3.95;2.05;;;19.20;77.60;;;;;;5078622;28;20028;-75
2021/05/11 00:33:27;;;;;;;6.00;2.08;;;19.20;77.60;;;;;;5071052;28;20060;-75
2021/05/11 00:36:13;;;;;;;3.78;2.30;;;19.20;77.90;;;;;;5084442;28;20125;-75
2021/05/11 00:38:58;;;;;;;3.55;2.10;;;19.10;78.10;;;;;;5075660;28;20036;-75
2021/05/11 00:41:44;;;;;;;2.35;1.70;;;19.10;78.10;;;;;;5061194;28;20038;-74
2021/05/11 00:44:30;;;;;;;3.53;2.28;;;19.10;78.40;;;;;;5087979;28;20059;-74
2021/05/11 00:47:16;;;;;;;3.70;2.00;;;19.10;78.70;;;;;;5075070;28;20564;-74
2021/05/11 00:50:02;;;;;;;3.22;2.15;;;19.00;78.70;;;;;;5089818;28;20024;-74
2021/05/11 00:52:48;;;;;;;4.65;2.03;;;19.00;78.70;;;;;;5091247;28;20067;-74
2021/05/11 00:55:34;;;;;;;3.10;1.90;;;19.00;79.20;;;;;;5098159;28;20034;-73
2021/05/11 00:58:20;;;;;;;2.95;1.80;;;18.90;79.60;;;;;;5095067;28;20501;-73
2021/05/11 01:01:06;;;;;;;3.53;1.80;;;18.80;80.00;;;;;;5107519;28;20399;-74
2021/05/11 01:03:52;;;;;;;5.07;2.05;;;18.80;80.70;;;;;;5091451;28;20082;-74
2021/05/11 01:06:38;;;;;;;3.55;2.10;;;18.70;81.10;;;;;;5091495;28;20479;-74
2021/05/11 01:09:25;;;;;;;3.15;1.95;;;18.70;81.20;;;;;;5070148;28;20021;-75
2021/05/11 01:12:11;;;;;;;4.03;2.08;;;18.70;81.80;;;;;;5090774;28;20486;-74
2021/05/11 01:14:57;;;;;;;4.97;2.13;;;18.70;81.80;;;;;;5088434;28;20024;-74
2021/05/11 01:17:50;;;;;;;4.32;2.10;;;18.60;82.10;;;;;;5081380;28;20021;-74
2021/05/11 01:20:41;;;;;;;3.25;2.20;;;18.60;82.50;;;;;;5088792;28;20047;-75
2021/05/11 01:26:26;;;;;;;4.30;2.00;;;18.50;83.10;;;;;;5091326;28;20073;-75
2021/05/11 01:29:36;;;;;;;3.92;2.10;;;18.50;83.90;;;;;;5071297;28;21086;-76
2021/05/11 01:32:42;;;;;;;3.13;2.28;;;18.40;83.80;;;;;;5088914;28;20171;-76
2021/05/11 01:45:20;;;;;;;3.17;2.17;;;18.30;85.40;;;;;;5092203;28;20027;-75
2021/05/11 01:48:06;;;;;;;4.35;2.55;;;18.30;85.20;;;;;;5088716;28;20073;-74
2021/05/11 01:51:11;;;;;;;3.15;2.35;;;18.30;85.10;;;;;;5103551;28;20033;-74
2021/05/11 01:54:16;;;;;;;6.65;2.65;;;18.30;86.20;;;;;;5044401;28;20052;-74
2021/05/11 02:24:20;;;;;;;4.18;3.03;;;18.10;88.20;;;;;;5090208;28;20056;-73
2021/05/11 02:27:06;;;;;;;5.82;2.90;;;18.00;88.40;;;;;;5100781;28;20040;-73
2021/05/11 02:29:52;;;;;;;4.78;2.97;;;18.00;88.30;;;;;;5088283;28;20020;-73
2021/05/11 02:32:39;;;;;;;5.03;2.90;;;18.00;88.60;;;;;;5080396;28;20109;-72
2021/05/11 02:35:25;;;;;;;4.78;3.08;;;18.00;88.80;;;;;;5096790;28;20019;-72
2021/05/11 02:38:12;;;;;;;5.60;2.97;;;18.00;88.90;;;;;;5073682;28;20041;-73
2021/05/11 02:40:58;;;;;;;8.38;3.47;;;17.90;88.70;;;;;;5088886;28;20055;-73
2021/05/11 02:43:44;;;;;;;8.27;3.38;;;17.90;89.00;;;;;;5093355;28;20500;-73
2021/05/11 02:46:30;;;;;;;5.20;3.13;;;17.90;88.70;;;;;;5100010;28;20047;-73
2021/05/11 02:49:18;;;;;;;6.38;2.97;;;17.90;88.70;;;;;;5109203;28;20028;-72
2021/05/11 02:52:04;;;;;;;4.40;3.10;;;17.90;88.90;;;;;;5098259;28;20372;-73
2021/05/11 02:54:50;;;;;;;7.63;3.40;;;17.90;88.80;;;;;;5091342;28;20027;-72
2021/05/11 02:57:36;;;;;;;3.75;3.00;;;17.90;88.90;;;;;;5092093;28;20062;-72
2021/05/11 03:00:24;;;;;;;6.80;3.15;;;17.80;89.50;;;;;;5099056;28;20051;-73
2021/05/11 03:03:10;;;;;;;6.72;3.30;;;17.80;89.50;;;;;;5104921;28;20474;-73
2021/05/11 03:05:56;;;;;;;6.18;3.20;;;17.80;89.70;;;;;;5102755;28;20547;-73
2021/05/11 03:08:44;;;;;;;4.82;3.20;;;17.80;89.50;;;;;;5093605;28;20032;-75
2021/05/11 03:11:29;;;;;;;4.78;3.30;;;17.80;89.50;;;;;;5085117;28;20064;-75
2021/05/11 03:14:15;;;;;;;5.10;3.08;;;17.70;89.40;;;;;;5092736;28;20029;-76
2021/05/11 03:17:01;;;;;;;7.78;3.47;;;17.70;89.70;;;;;;5102944;28;20085;-75
2021/05/11 03:19:47;;;;;;;7.03;3.22;;;17.70;89.80;;;;;;5076128;28;20056;-74
2021/05/11 03:22:33;;;;;;;8.93;3.85;;;17.70;90.00;;;;;;5071317;28;20117;-74
2021/05/11 03:25:19;;;;;;;9.07;4.20;;;17.70;90.00;;;;;;5082967;28;20024;-74
2021/05/11 03:28:05;;;;;;;5.57;3.85;;;17.60;90.10;;;;;;5093512;28;20535;-75
2021/05/11 03:30:51;;;;;;;5.07;3.78;;;17.60;90.20;;;;;;5083965;28;20483;-75
2021/05/11 03:33:37;;;;;;;12.65;4.20;;;17.60;90.10;;;;;;5092031;28;20028;-75
2021/05/11 03:36:22;;;;;;;6.18;3.83;;;17.60;90.20;;;;;;5100745;28;20500;-75
2021/05/11 03:39:08;;;;;;;6.35;3.97;;;17.50;90.10;;;;;;5090193;28;20028;-75
2021/05/11 03:41:58;;;;;;;7.45;4.93;;;17.50;90.10;;;;;;5092204;28;20020;-75
2021/05/11 03:44:48;;;;;;;6.90;4.35;;;17.50;90.10;;;;;;5095941;28;20059;-75
2021/05/11 03:47:44;;;;;;;6.22;4.38;;;17.50;90.00;;;;;;5105517;28;20025;-73
2021/05/11 03:50:30;;;;;;;6.47;4.60;;;17.50;90.10;;;;;;5090666;28;20039;-73
2021/05/11 03:53:16;;;;;;;10.18;4.65;;;17.50;90.10;;;;;;5092008;28;20048;-73
2021/05/11 03:56:03;;;;;;;8.02;4.60;;;17.50;90.30;;;;;;5106733;28;20055;-73
2021/05/11 03:58:48;;;;;;;7.30;4.15;;;17.50;90.30;;;;;;5106252;28;20093;-73
2021/05/11 04:01:34;;;;;;;7.13;5.13;;;17.40;90.20;;;;;;5071003;28;20185;-73
2021/05/11 04:04:20;;;;;;;14.95;5.05;;;17.50;90.30;;;;;;5080645;28;20032;-73
2021/05/11 04:07:07;;;;;;;7.85;5.25;;;17.40;90.40;;;;;;5111885;28;20027;-73
2021/05/11 04:09:56;;;;;;;8.15;5.18;;;17.40;90.70;;;;;;5095446;28;20483;-74
2021/05/11 04:13:16;;;;;;;5.97;4.40;;;17.40;90.50;;;;;;5091133;28;20032;-70
2021/05/11 04:19:06;;;;;;;8.80;4.70;;;17.40;90.60;;;;;;5092321;28;20337;-75
2021/05/11 04:21:52;;;;;;;6.32;4.38;;;17.30;90.70;;;;;;5110143;28;20144;-78
2021/05/11 04:24:38;;;;;;;8.82;5.03;;;17.40;90.60;;;;;;5097653;28;20043;-74
2021/05/11 04:27:24;;;;;;;7.10;4.93;;;17.40;90.80;;;;;;5089657;28;20502;-72
2021/05/11 04:30:12;;;;;;;6.90;5.18;;;17.40;90.70;;;;;;5093877;28;20029;-74
2021/05/11 04:32:58;;;;;;;8.07;4.88;;;17.40;90.70;;;;;;5083445;28;20503;-74
2021/05/11 04:35:43;;;;;;;9.65;5.45;;;17.50;90.70;;;;;;5107092;28;20549;-75
2021/05/11 04:38:29;;;;;;;8.95;4.90;;;17.50;90.70;;;;;;5076077;28;20515;-76
2021/05/11 04:41:15;;;;;;;10.32;5.85;;;17.50;90.70;;;;;;5089461;28;20509;-79
2021/05/11 04:44:04;;;;;;;8.50;5.55;;;17.50;90.70;;;;;;5071201;28;20361;-79
2021/05/11 04:47:01;;;;;;;12.63;5.82;;;17.50;90.60;;;;;;5076161;28;20032;-76
2021/05/11 04:49:47;;;;;;;7.72;4.78;;;17.60;90.70;;;;;;5085195;28;20063;-78
2021/05/11 04:52:34;;;;;;;11.90;5.95;;;17.60;90.60;;;;;;5090214;28;20038;-76
2021/05/11 04:55:20;;;;;;;10.02;5.93;;;17.70;90.70;;;;;;5100437;28;20028;-76
2021/05/11 04:58:06;;;;;;;12.40;6.30;;;17.70;90.60;;;;;;5092880;28;20089;-76
2021/05/11 05:00:59;;;;;;;8.35;5.72;;;17.80;90.50;;;;;;5087763;28;20055;-75
2021/05/11 05:03:47;;;;;;;13.98;5.75;;;17.90;90.40;;;;;;5083801;28;20421;-74
2021/05/11 05:06:33;;;;;;;6.43;4.63;;;17.90;90.30;;;;;;5083013;28;20024;-76
2021/05/11 05:09:19;;;;;;;7.60;4.97;;;18.10;90.20;;;;;;5090559;28;20023;-74
2021/05/11 05:12:05;;;;;;;6.80;5.07;;;18.10;90.10;;;;;;5098930;28;20024;-70
2021/05/11 05:14:51;;;;;;;7.72;4.80;;;18.20;90.00;;;;;;5085941;28;20043;-70
2021/05/11 05:17:37;;;;;;;7.25;5.28;;;18.30;89.90;;;;;;5094259;28;20030;-71
2021/05/11 05:20:22;;;;;;;7.93;5.10;;;18.40;89.70;;;;;;5097155;28;20044;-70
2021/05/11 05:23:08;;;;;;;7.60;4.85;;;18.50;89.60;;;;;;5091277;28;20340;-70
2021/05/11 05:26:04;;;;;;;7.85;4.88;;;18.60;89.10;;;;;;5097154;28;20487;-69
2021/05/11 05:28:51;;;;;;;6.75;5.22;;;18.70;89.00;;;;;;5090108;28;20117;-70
2021/05/11 05:31:37;;;;;;;8.60;5.40;;;18.80;88.70;;;;;;5081643;28;20040;-69
2021/05/11 05:34:22;;;;;;;9.02;4.90;;;18.90;88.20;;;;;;5079970;28;20052;-71
2021/05/11 05:37:09;;;;;;;8.73;5.13;;;18.90;87.70;;;;;;5103043;28;20042;-67
2021/05/11 05:39:58;;;;;;;7.50;5.13;;;19.00;87.50;;;;;;5087793;28;20036;-69
2021/05/11 05:42:46;;;;;;;8.90;4.93;;;19.10;87.10;;;;;;5089896;28;20070;-70
2021/05/11 05:45:31;;;;;;;7.25;5.05;;;19.20;87.00;;;;;;5097154;28;20236;-68
2021/05/11 05:48:17;;;;;;;8.45;5.28;;;19.20;86.60;;;;;;5087451;28;20055;-71
2021/05/11 05:51:04;;;;;;;7.13;4.78;;;19.30;86.50;;;;;;5087026;28;20046;-71
2021/05/11 05:53:50;;;;;;;7.70;5.53;;;19.40;86.80;;;;;;5090744;28;20016;-70
2021/05/11 05:56:36;;;;;;;7.57;4.57;;;19.40;85.90;;;;;;5068995;28;20396;-71
2021/05/11 05:59:21;;;;;;;8.82;4.40;;;19.40;85.80;;;;;;5054452;28;20041;-68
2021/05/11 06:02:15;;;;;;;8.45;4.90;;;19.50;85.70;;;;;;5067430;28;20555;-71
2021/05/11 06:05:01;;;;;;;10.23;5.47;;;19.70;85.60;;;;;;5064165;28;20025;-71
2021/05/11 06:07:47;;;;;;;6.75;5.07;;;19.70;85.20;;;;;;5074363;28;20115;-71
2021/05/11 06:10:33;;;;;;;7.50;4.80;;;19.80;85.10;;;;;;5067093;28;20036;-70
2021/05/11 06:13:21;;;;;;;6.53;5.15;;;19.80;84.90;;;;;;5054025;28;20032;-70
2021/05/11 06:19:12;;;;;;;10.13;4.75;;;20.00;84.60;;;;;;5064464;28;20139;-70
2021/05/11 06:21:58;;;;;;;7.57;4.88;;;20.20;84.40;;;;;;5077681;28;20040;-70
2021/05/11 06:24:45;;;;;;;10.15;4.97;;;20.30;84.40;;;;;;5078411;28;20118;-70
2021/05/11 06:27:30;;;;;;;6.60;4.28;;;20.50;83.70;;;;;;5083848;28;20392;-70
2021/05/11 06:30:17;;;;;;;8.85;4.40;;;20.60;83.10;;;;;;5065343;28;20056;-70
2021/05/11 06:33:04;;;;;;;7.80;4.53;;;20.70;82.90;;;;;;5064832;28;20032;-68
2021/05/11 06:35:52;;;;;;;7.72;4.53;;;20.80;82.00;;;;;;5068697;28;20056;-68
2021/05/11 06:38:39;;;;;;;7.53;4.45;;;20.90;81.70;;;;;;5064192;28;20024;-68
2021/05/11 06:41:26;;;;;;;8.05;4.50;;;21.00;81.50;;;;;;5071847;28;20047;-68
2021/05/11 06:44:22;;;;;;;6.82;4.07;;;21.10;81.00;;;;;;5067413;28;20072;-71
2021/05/11 06:47:24;;;;;;;11.70;5.65;;;21.20;81.00;;;;;;5074075;28;20055;-67
2021/05/11 06:50:15;;;;;;;8.77;4.25;;;21.40;81.10;;;;;;5068032;28;20376;-68
2021/05/11 06:53:14;;;;;;;8.35;4.07;;;21.60;80.10;;;;;;5075384;28;20085;-69
2021/05/11 06:55:59;;;;;;;7.32;4.05;;;21.80;80.10;;;;;;5075889;28;20032;-68
2021/05/11 06:58:46;;;;;;;10.65;4.13;;;22.00;79.30;;;;;;5072038;28;20033;-69
2021/05/11 07:01:31;;;;;;;12.40;4.65;;;22.10;78.90;;;;;;5073136;28;20056;-68
2021/05/11 07:04:17;;;;;;;9.88;4.18;;;22.30;77.90;;;;;;5054858;28;20047;-67
2021/05/11 07:07:07;;;;;;;5.32;3.90;;;22.40;77.40;;;;;;5072838;28;20530;-68
2021/05/11 07:10:07;;;;;;;8.80;4.28;;;22.60;76.60;;;;;;5077905;28;20036;-68
2021/05/11 07:13:08;;;;;;;6.38;4.40;;;22.60;75.80;;;;;;5084010;28;20081;-67
2021/05/11 07:15:54;;;;;;;6.95;4.10;;;22.70;75.50;;;;;;5071365;28;20404;-69
2021/05/11 07:18:40;;;;;;;8.82;3.85;;;22.80;75.50;;;;;;5071240;28;20024;-69
2021/05/11 07:21:26;;;;;;;7.68;3.90;;;23.00;74.60;;;;;;5080861;28;20240;-67
2021/05/11 07:24:12;;;;;;;5.38;3.78;;;23.10;74.60;;;;;;5070949;28;20272;-69
2021/05/11 07:29:54;;;;;;;6.25;4.03;;;23.30;73.20;;;;;;5071432;28;20033;-70
2021/05/11 07:32:41;;;;;;;9.57;4.45;;;23.40;73.50;;;;;;5072308;28;20044;-69
2021/05/11 07:35:27;;;;;;;5.72;3.72;;;23.40;73.20;;;;;;5082127;28;20580;-69
2021/05/11 07:38:12;;;;;;;8.48;4.10;;;23.50;72.80;;;;;;5092568;28;20024;-69
2021/05/11 07:40:58;;;;;;;7.80;4.15;;;23.50;71.50;;;;;;5058807;28;20079;-69
2021/05/11 07:43:50;;;;;;;6.90;3.90;;;23.60;71.50;;;;;;5073419;28;20048;-70
2021/05/11 07:46:46;;;;;;;7.55;4.18;;;23.70;70.40;;;;;;5072996;28;20028;-69
2021/05/11 07:56:42;;;;;;;9.68;4.13;;;23.90;69.60;;;;;;5078398;28;20563;-69
2021/05/11 08:05:13;;;;;;;7.55;4.20;;;24.20;68.20;;;;;;5079912;28;20032;-69
2021/05/11 08:17:11;;;;;;;9.68;4.28;;;24.60;66.40;;;;;;5090667;28;20529;-69
2021/05/11 08:23:05;;;;;;;7.53;4.22;;;24.70;65.00;;;;;;5072412;28;20440;-68
2021/05/11 08:28:46;;;;;;;7.65;4.30;;;25.00;64.80;;;;;;5070499;28;20112;-68
2021/05/11 08:31:32;;;;;;;6.75;3.75;;;25.10;64.00;;;;;;5078361;28;20043;-68
2021/05/11 08:34:18;;;;;;;5.68;3.60;;;25.20;64.20;;;;;;5087853;28;20553;-69
2021/05/11 08:37:04;;;;;;;6.70;4.00;;;25.30;63.50;;;;;;5079705;28;20028;-69
2021/05/11 08:39:51;;;;;;;8.88;4.03;;;25.40;63.40;;;;;;5068964;28;20403;-69
2021/05/11 08:42:37;;;;;;;5.15;3.63;;;25.50;62.80;;;;;;5071680;28;20029;-69
2021/05/11 08:45:23;;;;;;;5.82;3.67;;;25.70;62.20;;;;;;5069460;28;20036;-70
2021/05/11 08:48:09;;;;;;;8.18;4.18;;;25.90;61.70;;;;;;5071109;28;20420;-69
2021/05/11 08:51:03;;;;;;;8.32;4.00;;;26.00;60.40;;;;;;5085280;28;20035;-69
2021/05/11 09:06:41;;;;;;;7.20;3.15;;;26.50;58.80;;;;;;5051770;28;20036;-69
2021/05/11 09:09:43;;;;;;;6.82;3.95;;;26.60;58.00;;;;;;5075738;28;20020;-70
2021/05/11 09:25:16;;;;;;;7.35;3.33;;;26.80;57.00;;;;;;5084466;28;20360;-70
2021/05/11 09:28:29;;;;;;;9.70;3.72;;;26.90;57.00;;;;;;5109681;28;20540;-69
2021/05/11 09:31:43;;;;;;;6.40;3.53;;;26.90;56.90;;;;;;5088333;28;20031;-69
2021/05/11 09:34:37;;;;;;;4.93;3.47;;;26.90;56.20;;;;;;5092564;28;20472;-70
2021/05/11 09:56:17;;;;;;;4.60;3.55;;;27.00;54.50;;;;;;5102604;28;20031;-70
2021/05/11 10:12:26;;;;;;;6.03;4.18;;;27.00;53.80;;;;;;5069631;28;20415;-69
2021/05/11 10:36:51;;;;;;;5.47;3.53;;;27.20;53.60;;;;;;5107812;28;20073;-69
2021/05/11 10:39:59;;;;;;;5.57;3.47;;;27.20;53.40;;;;;;5082921;28;20060;-69
2021/05/11 10:49:37;;;;;;;5.82;3.80;;;27.40;53.40;;;;;;5088137;28;20102;-70
2021/05/11 10:52:36;;;;;;;10.25;3.75;;;27.50;53.30;;;;;;5092887;28;20039;-70
2021/05/11 10:55:26;;;;;;;5.57;3.65;;;27.60;53.40;;;;;;5091373;28;20036;-70
2021/05/11 10:58:13;;;;;;;7.25;3.80;;;27.60;53.30;;;;;;5098219;28;20558;-69
2021/05/11 11:00:59;;;;;;;6.65;3.90;;;27.80;53.60;;;;;;5092382;28;20055;-69
2021/05/11 11:04:07;;;;;;;6.78;3.60;;;27.90;53.80;;;;;;5098635;28;20032;-69
2021/05/11 11:09:55;;;;;;;7.45;3.55;;;28.00;53.20;;;;;;5064280;28;20040;-70
2021/05/11 11:12:42;;;;;;;6.50;3.60;;;28.10;53.20;;;;;;5075330;28;20484;-69
2021/05/11 11:15:29;;;;;;;7.68;3.70;;;28.20;52.90;;;;;;5082838;28;20017;-69
2021/05/11 11:18:21;;;;;;;7.18;4.15;;;28.20;52.30;;;;;;5094060;28;20024;-70
2021/05/11 11:23:58;;;;;;;7.95;3.72;;;28.30;52.30;;;;;;5090989;28;20399;-70
2021/05/11 11:26:44;;;;;;;5.93;3.65;;;28.40;52.00;;;;;;5051978;28;20652;-70
2021/05/11 11:29:31;;;;;;;6.63;3.90;;;28.50;52.10;;;;;;5059568;28;20031;-70
2021/05/11 11:32:21;;;;;;;7.50;4.32;;;28.50;52.10;;;;;;5093202;28;20514;-70
2021/05/11 11:35:09;;;;;;;6.35;4.30;;;28.50;51.10;;;;;;5081310;28;20036;-69
2021/05/11 11:37:57;;;;;;;9.85;4.30;;;28.50;51.10;;;;;;5073085;28;20039;-69
2021/05/11 11:40:43;;;;;;;5.82;3.88;;;28.40;51.30;;;;;;5084344;28;20503;-69
2021/05/11 11:43:30;;;;;;;6.55;3.92;;;28.50;51.60;;;;;;5079356;28;20024;-68
2021/05/11 11:46:28;;;;;;;6.70;3.90;;;28.50;51.50;;;;;;5072771;28;20551;-69
2021/05/11 11:49:18;;;;;;;8.38;4.05;;;28.50;51.50;;;;;;5071489;28;20151;-69
2021/05/11 11:52:19;;;;;;;6.63;3.97;;;28.60;51.80;;;;;;5069229;28;20021;-69
2021/05/11 11:55:31;;;;;;;7.25;4.60;;;28.70;51.80;;;;;;5083721;28;20028;-69
2021/05/11 11:58:26;;;;;;;8.90;4.40;;;28.80;51.40;;;;;;5074331;28;20036;-69
2021/05/11 12:01:13;;;;;;;7.47;4.28;;;28.80;50.80;;;;;;5077385;28;20064;-68
2021/05/11 12:04:00;;;;;;;7.50;3.85;;;28.90;50.50;;;;;;5072162;28;20029;-69
2021/05/11 12:06:50;;;;;;;5.72;4.07;;;28.90;50.10;;;;;;5067114;28;20683;-69
2021/05/11 12:09:39;;;;;;;4.75;3.97;;;29.00;50.30;;;;;;5074575;28;20028;-69
2021/05/11 12:12:25;;;;;;;6.55;3.45;;;29.00;50.20;;;;;;5074967;28;20368;-69
2021/05/11 12:15:10;;;;;;;;;;;29.00;50.50;;;;;;5072539;28;20035;-69
2021/05/11 12:18:16;;;;;;;7.80;3.50;;;29.10;51.10;;;;;;5053095;28;19931;-69
2021/05/11 12:21:04;;;;;;;7.97;3.80;;;29.20;50.30;;;;;;5079569;28;20395;-69
2021/05/11 12:23:48;;;;;;;5.32;3.70;;;29.30;50.30;;;;;;5070963;28;20149;-68
2021/05/11 12:26:20;;;;;;;9.32;3.78;;;29.40;49.60;;;;;;5072301;28;20050;-69
2021/05/11 12:28:45;;;;;;;6.65;3.75;;;29.50;49.40;;;;;;5069752;28;20029;-68
2021/05/11 12:31:12;;;;;;;5.57;3.47;;;29.50;48.90;;;;;;5074384;28;20028;-68
2021/05/11 12:33:44;;;;;;;5.80;3.67;;;29.50;48.80;;;;;;5062952;28;20032;-68
2021/05/11 12:36:25;;;;;;;6.90;3.67;;;29.50;48.60;;;;;;5075641;28;20036;-69
2021/05/11 12:42:27;;;;;;;6.55;3.65;;;29.60;48.90;;;;;;5060591;28;20458;-69
2021/05/11 12:45:14;;;;;;;9.45;4.25;;;29.60;49.00;;;;;;5072852;28;20042;-69
2021/05/11 12:48:00;;;;;;;7.00;3.67;;;29.70;49.30;;;;;;5073939;28;20048;-68
2021/05/11 12:50:45;;;;;;;7.90;4.50;;;29.80;49.10;;;;;;5066717;28;20053;-69
2021/05/11 12:53:34;;;;;;;6.45;3.90;;;29.90;49.20;;;;;;5071240;28;20031;-69
2021/05/11 13:00:12;;;;;;;7.03;4.03;;;30.00;48.30;;;;;;5047626;28;20454;-69
2021/05/11 13:14:53;;;;;;;6.65;3.60;;;30.40;48.50;;;;;;5066965;28;20051;-69
2021/05/11 13:25:10;;;;;;;7.25;4.10;;;30.50;48.20;;;;;;5071287;28;20044;-69
2021/05/11 13:26:35;;;;;;;9.63;4.22;;;30.50;48.30;;;;;;5051614;28;20064;-69
2021/05/11 13:29:36;;;;;;;7.18;3.83;;;30.60;47.80;;;;;;5067843;28;20109;-69
2021/05/11 13:35:27;;;;;;;7.88;3.70;;;30.80;47.70;;;;;;5052677;28;20107;-69
2021/05/11 13:38:12;;;;;;;;;;;30.90;47.20;;;;;;5053599;28;20082;-69
2021/05/11 13:40:56;;;;;;;7.65;4.15;;;30.90;47.80;;;;;;5068913;28;19922;-69
2021/05/11 13:43:40;;;;;;;4.80;3.92;;;30.90;47.50;;;;;;5065555;28;20130;-70
2021/05/11 13:46:24;;;;;;;6.05;4.63;;;31.00;47.40;;;;;;5070385;28;20063;-70
2021/05/11 13:49:08;;;;;;;7.07;3.95;;;31.00;47.40;;;;;;5071244;28;20051;-71
2021/05/11 13:51:53;;;;;;;6.03;3.67;;;31.00;47.40;;;;;;5069547;28;20124;-71
2021/05/11 13:54:37;;;;;;;5.43;3.55;;;31.00;47.00;;;;;;5062456;28;20448;-69
2021/05/11 14:01:33;;;;;;;5.55;4.00;;;31.10;46.80;;;;;;5069818;28;20119;-67
2021/05/11 14:03:37;;;;;;;5.93;3.60;;;31.30;47.10;;;;;;5067211;28;20112;-70
2021/05/11 14:06:21;;;;;;;9.93;3.53;;;31.20;46.70;;;;;;5067207;28;20047;-70
2021/05/11 14:09:06;;;;;;;10.02;3.97;;;31.30;46.70;;;;;;5071408;28;20439;-69
2021/05/11 14:11:50;;;;;;;6.65;3.65;;;31.20;46.40;;;;;;5066030;28;20039;-70
2021/05/11 14:14:34;;;;;;;;;;;31.20;46.50;;;;;;5063709;28;20695;-71
2021/05/11 14:17:18;;;;;;;6.47;3.95;;;31.30;47.20;;;;;;5051877;28;19939;-70
2021/05/11 14:20:03;;;;;;;7.40;3.92;;;31.40;46.30;;;;;;5071631;28;20126;-70
2021/05/11 14:22:48;;;;;;;4.93;3.42;;;31.60;45.70;;;;;;5070287;28;20854;-70
2021/05/11 14:25:32;;;;;;;6.85;3.83;;;31.70;45.70;;;;;;5071061;28;20035;-69
2021/05/11 14:28:16;;;;;;;6.35;3.80;;;31.80;46.10;;;;;;5081751;28;20047;-70
2021/05/11 14:31:00;;;;;;;7.28;3.83;;;31.90;45.60;;;;;;5075407;28;20044;-70
2021/05/11 14:33:44;;;;;;;10.68;4.00;;;32.00;45.10;;;;;;5074647;28;20568;-70
2021/05/11 14:36:28;;;;;;;6.05;4.28;;;32.00;45.10;;;;;;5074286;28;20124;-70
2021/05/11 14:39:12;;;;;;;5.75;3.70;;;32.10;44.70;;;;;;5068415;28;20090;-70
2021/05/11 14:41:58;;;;;;;9.48;3.55;;;32.10;44.70;;;;;;5060942;28;20436;-70
2021/05/11 14:44:42;;;;;;;5.88;3.67;;;32.20;44.40;;;;;;5074412;28;20035;-70
2021/05/11 14:47:07;;;;;;;6.05;4.00;;;32.30;44.70;;;;;;5066560;28;20463;-70
2021/05/11 14:49:33;;;;;;;8.02;4.00;;;32.30;44.30;;;;;;5072620;28;20055;-70
2021/05/11 14:51:59;;;;;;;6.45;3.85;;;32.40;44.50;;;;;;5074616;28;20107;-69
2021/05/11 14:54:24;;;;;;;7.57;4.05;;;32.30;44.50;;;;;;5075702;28;20112;-70
2021/05/11 14:56:50;;;;;;;6.35;4.40;;;32.40;44.60;;;;;;5091102;28;20119;-70
2021/05/11 14:59:15;;;;;;;8.38;3.95;;;32.40;44.80;;;;;;5084964;28;20025;-70
2021/05/11 15:01:41;;;;;;;6.75;3.58;;;32.40;44.30;;;;;;5073647;28;20060;-70
2021/05/11 15:04:06;;;;;;;7.43;4.22;;;32.50;44.50;;;;;;5070992;28;20021;-70
2021/05/11 15:06:33;;;;;;;6.70;4.05;;;32.60;44.30;;;;;;5073038;28;20070;-71
2021/05/11 15:08:59;;;;;;;8.93;4.15;;;32.60;44.40;;;;;;5055187;28;20059;-71
2021/05/11 15:11:25;;;;;;;6.38;3.92;;;32.60;44.10;;;;;;5076308;28;20064;-71
2021/05/11 15:13:52;;;;;;;9.32;4.40;;;32.60;44.00;;;;;;5071918;28;20017;-71
2021/05/11 15:16:22;;;;;;;8.18;3.75;;;32.60;44.00;;;;;;5072128;28;20033;-71
2021/05/11 15:18:49;;;;;;;6.40;3.90;;;32.50;44.20;;;;;;5073368;28;20021;-71
2021/05/11 15:21:16;;;;;;;7.97;3.90;;;32.30;44.40;;;;;;5073197;28;20067;-69
2021/05/11 15:23:42;;;;;;;8.23;4.70;;;32.20;44.60;;;;;;5063124;28;20423;-71
2021/05/11 15:26:09;;;;;;;7.75;4.20;;;32.10;44.70;;;;;;5066499;28;20025;-71
2021/05/11 15:28:36;;;;;;;5.43;3.65;;;31.90;44.60;;;;;;5071250;28;20099;-69
2021/05/11 15:31:03;;;;;;;8.45;3.88;;;31.80;44.80;;;;;;5067680;28;20025;-72
2021/05/11 15:33:28;;;;;;;6.55;4.22;;;31.70;44.90;;;;;;5071471;28;20021;-70
2021/05/11 15:35:54;;;;;;;8.38;3.95;;;31.60;45.70;;;;;;5081960;28;20031;-70
2021/05/11 15:38:20;;;;;;;8.27;4.70;;;31.40;46.50;;;;;;5074618;28;20031;-70
2021/05/11 15:40:45;;;;;;;8.10;4.35;;;31.20;47.30;;;;;;5069179;28;20470;-70
2021/05/11 15:43:13;;;;;;;10.80;4.88;;;31.00;47.80;;;;;;5069107;28;20029;-69
2021/05/11 15:45:39;;;;;;;8.25;4.53;;;31.00;48.20;;;;;;5066844;28;20021;-69
2021/05/11 15:48:08;;;;;;;6.20;3.95;;;31.00;48.50;;;;;;5065369;28;20079;-69
2021/05/11 15:50:36;;;;;;;7.07;4.63;;;31.00;48.70;;;;;;5065485;28;20103;-70
2021/05/11 15:53:05;;;;;;;7.35;4.90;;;31.00;49.00;;;;;;5073806;28;20031;-69
2021/05/11 15:55:31;;;;;;;7.07;4.78;;;31.00;49.10;;;;;;5078094;28;20031;-69
2021/05/11 15:57:57;;;;;;;6.40;4.47;;;31.00;49.10;;;;;;5072396;28;20070;-69
2021/05/11 16:00:22;;;;;;;9.27;4.68;;;30.90;49.10;;;;;;5071601;28;20488;-69
2021/05/11 16:02:49;;;;;;;11.15;5.45;;;30.80;49.50;;;;;;5075401;28;20479;-69
2021/05/11 16:05:18;;;;;;;6.85;4.30;;;30.60;49.80;;;;;;5079976;28;20036;-72
2021/05/11 16:07:44;;;;;;;9.02;4.50;;;30.50;49.90;;;;;;5079896;28;20055;-70
2021/05/11 16:10:09;;;;;;;6.65;4.82;;;30.40;50.10;;;;;;5077011;28;20462;-70
2021/05/11 16:12:36;;;;;;;10.23;5.13;;;30.30;50.20;;;;;;5083945;28;20468;-70
2021/05/11 16:15:07;;;;;;;6.72;4.07;;;30.20;50.50;;;;;;5083118;28;20075;-70
2021/05/11 16:17:32;;;;;;;8.48;4.63;;;30.10;50.70;;;;;;5071597;28;20068;-70
2021/05/11 16:19:58;;;;;;;7.35;5.05;;;29.90;50.90;;;;;;5071393;28;20112;-70
2021/05/11 16:22:23;;;;;;;10.63;5.10;;;29.70;51.20;;;;;;5092127;28;20049;-70
2021/05/11 16:24:49;;;;;;;7.30;4.72;;;29.70;51.40;;;;;;5068693;28;20028;-71
2021/05/11 16:27:33;;;;;;;14.23;5.30;;;29.70;51.50;;;;;;5077481;28;20095;-72
2021/05/11 16:30:19;;;;;;;10.73;4.90;;;29.60;51.60;;;;;;5075964;28;20066;-72
2021/05/11 16:33:08;;;;;;;8.77;5.25;;;29.50;51.80;;;;;;5072582;28;20031;-72
2021/05/11 16:35:52;;;;;;;6.80;5.25;;;29.40;52.20;;;;;;5068551;28;20408;-72
2021/05/11 16:38:37;;;;;;;10.73;4.97;;;29.30;52.40;;;;;;5067274;28;20036;-72
2021/05/11 16:41:21;;;;;;;9.32;5.13;;;29.20;52.70;;;;;;5077620;28;20454;-72
2021/05/11 16:44:06;;;;;;;5.93;5.10;;;29.20;53.00;;;;;;5085605;28;20031;-72
2021/05/11 16:46:50;;;;;;;8.80;5.95;;;29.20;53.10;;;;;;5072048;28;20077;-72
2021/05/11 16:49:36;;;;;;;9.25;5.13;;;29.10;53.10;;;;;;5074423;28;20077;-71
2021/05/11 16:52:21;;;;;;;8.30;4.85;;;29.10;53.20;;;;;;5057188;28;20040;-72
2021/05/11 16:55:07;;;;;;;7.97;4.90;;;29.10;53.20;;;;;;5072083;28;20055;-72
2021/05/11 16:57:32;;;;;;;7.15;5.47;;;29.10;53.20;;;;;;5064850;28;20024;-72
2021/05/11 17:00:18;;;;;;;8.00;5.55;;;29.10;53.30;;;;;;5051057;28;20570;-72
2021/05/11 17:03:03;;;;;;;8.25;4.60;;;29.00;53.50;;;;;;5070458;28;20074;-71
2021/05/11 17:05:48;;;;;;;6.53;5.13;;;28.80;53.90;;;;;;5072226;28;20086;-72
2021/05/11 17:08:32;;;;;;;9.85;5.45;;;28.60;54.10;;;;;;5070592;28;20058;-72
2021/05/11 17:11:16;;;;;;;10.40;5.03;;;28.60;54.90;;;;;;5069769;28;20157;-72
2021/05/11 17:14:02;;;;;;;9.05;5.40;;;28.50;54.80;;;;;;5069941;28;20036;-72
2021/05/11 17:16:47;;;;;;;11.25;5.28;;;28.30;55.00;;;;;;5049540;28;20075;-71
2021/05/11 17:19:31;;;;;;;6.97;4.82;;;28.30;55.30;;;;;;5075701;28;20118;-71
2021/05/11 17:22:15;;;;;;;6.97;5.05;;;28.20;55.30;;;;;;5069532;28;20051;-70
2021/05/11 17:24:59;;;;;;;6.60;5.05;;;28.10;55.60;;;;;;5076996;28;20566;-71
2021/05/11 17:27:44;;;;;;;8.20;5.32;;;28.00;56.10;;;;;;5051500;28;20040;-71
2021/05/11 17:30:28;;;;;;;11.57;5.55;;;27.90;56.10;;;;;;5062910;28;20057;-70
2021/05/11 17:33:14;;;;;;;;;;;28.00;56.30;;;;;;5078911;28;20522;-70
2021/05/11 17:35:59;;;;;;;7.53;5.40;;;28.00;55.90;;;;;;5070287;28;20025;-69
2021/05/11 17:38:43;;;;;;;12.80;5.35;;;27.90;56.20;;;;;;5060996;28;20034;-69